Anchor Point, Alaska
Current Conditions -  °F | °C
As of 7:53 PM on Friday 28 Nov 2014 (Local Time) from PAHO Reporting Station
Light Rain Light Rain  
Wind Chill: 31°   Ceiling: 3700
Heat Index: 36°   Visibility: 9mi
Dew Point: 32°   Wind: 6mph
Humidity: 86%   Direction: 40°NE
Pressure: 30.11"   Gusts: NA
Location:  59.77°N, 151.82°W
Report Text: PAHO 290453Z 04005KT 9SM -RA OVC037 02/00 A3011 RMK AO2 UPB29E49RAB49 SLP197 P0000 T00220000
Loading
Personal Weather Stations






























Interactive Weather Map New forecast layout! Learn more

10-Day Weather Forecast

Advertisements
Track Severe Weather on mobile